sensor_id;sensor_type;location;lat;lon;timestamp;pressure;altitude;pressure_sealevel;temperature
75811;BMP280;64449;50.016;19.954;2023-02-28T00:00:13;99913.75;;;2.38
75811;BMP280;64449;50.016;19.954;2023-02-28T00:02:40;99916.61;;;2.37
75811;BMP280;64449;50.016;19.954;2023-02-28T00:05:07;99916.16;;;2.36
75811;BMP280;64449;50.016;19.954;2023-02-28T00:07:35;99916.27;;;2.35
75811;BMP280;64449;50.016;19.954;2023-02-28T00:10:01;99920.20;;;2.36
75811;BMP280;64449;50.016;19.954;2023-02-28T00:12:27;99920.17;;;2.35
75811;BMP280;64449;50.016;19.954;2023-02-28T00:14:52;99922.09;;;2.34
75811;BMP280;64449;50.016;19.954;2023-02-28T00:17:18;99920.86;;;2.32
75811;BMP280;64449;50.016;19.954;2023-02-28T00:19:50;99922.70;;;2.29
75811;BMP280;64449;50.016;19.954;2023-02-28T00:22:17;99924.07;;;2.27
75811;BMP280;64449;50.016;19.954;2023-02-28T00:24:43;99926.04;;;2.27
75811;BMP280;64449;50.016;19.954;2023-02-28T00:27:10;99926.83;;;2.25
75811;BMP280;64449;50.016;19.954;2023-02-28T00:29:35;99931.84;;;2.24
75811;BMP280;64449;50.016;19.954;2023-02-28T00:32:01;99929.40;;;2.23
75811;BMP280;64449;50.016;19.954;2023-02-28T00:34:27;99929.47;;;2.22
75811;BMP280;64449;50.016;19.954;2023-02-28T00:36:52;99932.85;;;2.21
75811;BMP280;64449;50.016;19.954;2023-02-28T00:39:18;99929.60;;;2.19
75811;BMP280;64449;50.016;19.954;2023-02-28T00:41:44;99927.23;;;2.17
75811;BMP280;64449;50.016;19.954;2023-02-28T00:44:09;99927.31;;;2.16
75811;BMP280;64449;50.016;19.954;2023-02-28T00:46:34;99929.55;;;2.16
75811;BMP280;64449;50.016;19.954;2023-02-28T00:49:00;99925.71;;;2.15
75811;BMP280;64449;50.016;19.954;2023-02-28T00:51:25;99927.39;;;2.15
75811;BMP280;64449;50.016;19.954;2023-02-28T00:53:51;99927.88;;;2.13
75811;BMP280;64449;50.016;19.954;2023-02-28T00:56:16;99923.55;;;2.13
75811;BMP280;64449;50.016;19.954;2023-02-28T00:58:41;99922.60;;;2.10
75811;BMP280;64449;50.016;19.954;2023-02-28T01:01:07;99923.33;;;2.08
75811;BMP280;64449;50.016;19.954;2023-02-28T01:03:33;99921.23;;;2.05
75811;BMP280;64449;50.016;19.954;2023-02-28T01:05:58;99925.32;;;2.03
75811;BMP280;64449;50.016;19.954;2023-02-28T01:08:23;99923.08;;;2.01
75811;BMP280;64449;50.016;19.954;2023-02-28T01:10:49;99924.44;;;1.99
75811;BMP280;64449;50.016;19.954;2023-02-28T01:13:15;99923.08;;;1.98
75811;BMP280;64449;50.016;19.954;2023-02-28T01:15:45;99924.54;;;1.96
75811;BMP280;64449;50.016;19.954;2023-02-28T01:18:11;99922.32;;;1.96
75811;BMP280;64449;50.016;19.954;2023-02-28T01:20:37;99926.19;;;1.93
75811;BMP280;64449;50.016;19.954;2023-02-28T01:23:03;99925.25;;;1.91
75811;BMP280;64449;50.016;19.954;2023-02-28T01:25:28;99922.61;;;1.90
75811;BMP280;64449;50.016;19.954;2023-02-28T01:27:54;99923.73;;;1.89
75811;BMP280;64449;50.016;19.954;2023-02-28T01:30:19;99921.75;;;1.86
75811;BMP280;64449;50.016;19.954;2023-02-28T01:32:44;99919.89;;;1.82
75811;BMP280;64449;50.016;19.954;2023-02-28T01:35:10;99920.52;;;1.79
75811;BMP280;64449;50.016;19.954;2023-02-28T01:37:35;99925.22;;;1.78
75811;BMP280;64449;50.016;19.954;2023-02-28T01:40:00;99923.81;;;1.78
75811;BMP280;64449;50.016;19.954;2023-02-28T01:42:26;99924.73;;;1.77
75811;BMP280;64449;50.016;19.954;2023-02-28T01:47:28;99922.30;;;1.74
75811;BMP280;64449;50.016;19.954;2023-02-28T01:49:54;99925.30;;;1.73
75811;BMP280;64449;50.016;19.954;2023-02-28T01:52:21;99920.77;;;1.73
75811;BMP280;64449;50.016;19.954;2023-02-28T01:54:52;99918.88;;;1.71
75811;BMP280;64449;50.016;19.954;2023-02-28T01:57:24;99917.11;;;1.70
75811;BMP280;64449;50.016;19.954;2023-02-28T02:00:11;99915.21;;;1.69
75811;BMP280;64449;50.016;19.954;2023-02-28T02:02:39;99915.59;;;1.66
75811;BMP280;64449;50.016;19.954;2023-02-28T02:05:09;99916.55;;;1.65
75811;BMP280;64449;50.016;19.954;2023-02-28T02:07:38;99913.25;;;1.64
75811;BMP280;64449;50.016;19.954;2023-02-28T02:10:20;99911.69;;;1.62
75811;BMP280;64449;50.016;19.954;2023-02-28T02:15:42;99911.89;;;1.58
75811;BMP280;64449;50.016;19.954;2023-02-28T02:18:32;99905.95;;;1.55
75811;BMP280;64449;50.016;19.954;2023-02-28T02:21:17;99908.42;;;1.53
75811;BMP280;64449;50.016;19.954;2023-02-28T02:26:55;99902.49;;;1.45
75811;BMP280;64449;50.016;19.954;2023-02-28T02:34:55;99903.81;;;1.35
75811;BMP280;64449;50.016;19.954;2023-02-28T02:37:27;99903.84;;;1.30
75811;BMP280;64449;50.016;19.954;2023-02-28T02:42:41;99901.00;;;1.23
75811;BMP280;64449;50.016;19.954;2023-02-28T02:45:15;99895.77;;;1.20
75811;BMP280;64449;50.016;19.954;2023-02-28T02:47:42;99892.21;;;1.18
75811;BMP280;64449;50.016;19.954;2023-02-28T02:50:12;99895.58;;;1.14
75811;BMP280;64449;50.016;19.954;2023-02-28T02:52:44;99898.66;;;1.11
75811;BMP280;64449;50.016;19.954;2023-02-28T02:55:11;99894.23;;;1.08
75811;BMP280;64449;50.016;19.954;2023-02-28T02:57:53;99897.40;;;1.05
75811;BMP280;64449;50.016;19.954;2023-02-28T03:00:24;99893.64;;;1.03
75811;BMP280;64449;50.016;19.954;2023-02-28T03:02:52;99894.91;;;1.00
75811;BMP280;64449;50.016;19.954;2023-02-28T03:05:32;99891.91;;;0.97
75811;BMP280;64449;50.016;19.954;2023-02-28T03:07:59;99892.89;;;0.94
75811;BMP280;64449;50.016;19.954;2023-02-28T03:16:22;99893.61;;;0.87
75811;BMP280;64449;50.016;19.954;2023-02-28T03:22:00;99895.05;;;0.85
75811;BMP280;64449;50.016;19.954;2023-02-28T03:27:07;99900.70;;;0.83
75811;BMP280;64449;50.016;19.954;2023-02-28T03:29:38;99902.63;;;0.83
75811;BMP280;64449;50.016;19.954;2023-02-28T03:32:21;99907.69;;;0.82
75811;BMP280;64449;50.016;19.954;2023-02-28T03:34:57;99912.86;;;0.81
75811;BMP280;64449;50.016;19.954;2023-02-28T03:37:25;99912.84;;;0.80
75811;BMP280;64449;50.016;19.954;2023-02-28T03:40:06;99912.54;;;0.78
75811;BMP280;64449;50.016;19.954;2023-02-28T03:42:36;99910.20;;;0.78
75811;BMP280;64449;50.016;19.954;2023-02-28T03:45:19;99912.55;;;0.78
75811;BMP280;64449;50.016;19.954;2023-02-28T03:50:27;99920.45;;;0.77
75811;BMP280;64449;50.016;19.954;2023-02-28T03:53:02;99921.48;;;0.76
75811;BMP280;64449;50.016;19.954;2023-02-28T03:55:34;99925.91;;;0.75
75811;BMP280;64449;50.016;19.954;2023-02-28T03:58:24;99923.59;;;0.75
75811;BMP280;64449;50.016;19.954;2023-02-28T04:00:57;99924.73;;;0.74
75811;BMP280;64449;50.016;19.954;2023-02-28T04:03:24;99925.10;;;0.72
75811;BMP280;64449;50.016;19.954;2023-02-28T04:05:54;99928.99;;;0.70
75811;BMP280;64449;50.016;19.954;2023-02-28T04:08:21;99931.39;;;0.66
75811;BMP280;64449;50.016;19.954;2023-02-28T04:10:52;99931.92;;;0.66
75811;BMP280;64449;50.016;19.954;2023-02-28T04:13:19;99935.28;;;0.62
75811;BMP280;64449;50.016;19.954;2023-02-28T04:15:44;99939.34;;;0.61
75811;BMP280;64449;50.016;19.954;2023-02-28T04:18:10;99940.93;;;0.60
75811;BMP280;64449;50.016;19.954;2023-02-28T04:20:36;99940.76;;;0.59
75811;BMP280;64449;50.016;19.954;2023-02-28T04:23:01;99940.45;;;0.57
75811;BMP280;64449;50.016;19.954;2023-02-28T04:25:26;99940.73;;;0.54
75811;BMP280;64449;50.016;19.954;2023-02-28T04:27:52;99937.66;;;0.52
75811;BMP280;64449;50.016;19.954;2023-02-28T04:30:17;99942.21;;;0.51
75811;BMP280;64449;50.016;19.954;2023-02-28T04:32:43;99944.69;;;0.48
75811;BMP280;64449;50.016;19.954;2023-02-28T04:35:08;99949.84;;;0.46
75811;BMP280;64449;50.016;19.954;2023-02-28T04:37:34;99949.06;;;0.44
75811;BMP280;64449;50.016;19.954;2023-02-28T04:40:02;99947.71;;;0.43
75811;BMP280;64449;50.016;19.954;2023-02-28T04:42:28;99945.43;;;0.40
75811;BMP280;64449;50.016;19.954;2023-02-28T04:45:04;99951.48;;;0.38
75811;BMP280;64449;50.016;19.954;2023-02-28T04:47:30;99950.55;;;0.36
75811;BMP280;64449;50.016;19.954;2023-02-28T04:49:55;99946.83;;;0.34
75811;BMP280;64449;50.016;19.954;2023-02-28T04:52:20;99951.86;;;0.33
75811;BMP280;64449;50.016;19.954;2023-02-28T04:54:46;99946.46;;;0.31
75811;BMP280;64449;50.016;19.954;2023-02-28T04:57:11;99950.65;;;0.28
75811;BMP280;64449;50.016;19.954;2023-02-28T04:59:37;99953.29;;;0.26
75811;BMP280;64449;50.016;19.954;2023-02-28T05:02:02;99950.38;;;0.23
75811;BMP280;64449;50.016;19.954;2023-02-28T05:04:35;99953.73;;;0.21
75811;BMP280;64449;50.016;19.954;2023-02-28T05:07:02;99957.72;;;0.18
75811;BMP280;64449;50.016;19.954;2023-02-28T05:09:28;99955.98;;;0.16
75811;BMP280;64449;50.016;19.954;2023-02-28T05:11:54;99958.94;;;0.15
75811;BMP280;64449;50.016;19.954;2023-02-28T05:14:20;99956.67;;;0.14
75811;BMP280;64449;50.016;19.954;2023-02-28T05:16:46;99961.12;;;0.14
75811;BMP280;64449;50.016;19.954;2023-02-28T05:19:11;99957.95;;;0.15
75811;BMP280;64449;50.016;19.954;2023-02-28T05:21:42;99957.93;;;0.15
75811;BMP280;64449;50.016;19.954;2023-02-28T05:24:13;99961.05;;;0.14
75811;BMP280;64449;50.016;19.954;2023-02-28T05:26:41;99960.81;;;0.14
75811;BMP280;64449;50.016;19.954;2023-02-28T05:29:07;99967.30;;;0.14
75811;BMP280;64449;50.016;19.954;2023-02-28T05:31:33;99963.33;;;0.14
75811;BMP280;64449;50.016;19.954;2023-02-28T05:33:59;99966.04;;;0.15
75811;BMP280;64449;50.016;19.954;2023-02-28T05:36:24;99971.74;;;0.15
75811;BMP280;64449;50.016;19.954;2023-02-28T05:38:50;99971.86;;;0.15
75811;BMP280;64449;50.016;19.954;2023-02-28T05:41:18;99980.31;;;0.15
75811;BMP280;64449;50.016;19.954;2023-02-28T05:43:44;99982.41;;;0.15
75811;BMP280;64449;50.016;19.954;2023-02-28T05:46:12;99985.67;;;0.16
75811;BMP280;64449;50.016;19.954;2023-02-28T05:48:39;99988.60;;;0.16
75811;BMP280;64449;50.016;19.954;2023-02-28T05:51:06;99991.96;;;0.16
75811;BMP280;64449;50.016;19.954;2023-02-28T05:53:32;99994.13;;;0.18
75811;BMP280;64449;50.016;19.954;2023-02-28T05:55:58;99998.94;;;0.19
75811;BMP280;64449;50.016;19.954;2023-02-28T05:58:24;99998.18;;;0.19
75811;BMP280;64449;50.016;19.954;2023-02-28T06:00:59;100002.72;;;0.21
75811;BMP280;64449;50.016;19.954;2023-02-28T06:03:25;100004.08;;;0.22
75811;BMP280;64449;50.016;19.954;2023-02-28T06:05:51;100003.58;;;0.22
75811;BMP280;64449;50.016;19.954;2023-02-28T06:08:16;100003.20;;;0.24
75811;BMP280;64449;50.016;19.954;2023-02-28T06:10:42;99999.20;;;0.25
75811;BMP280;64449;50.016;19.954;2023-02-28T06:13:07;100003.05;;;0.26
75811;BMP280;64449;50.016;19.954;2023-02-28T06:15:33;100003.40;;;0.28
75811;BMP280;64449;50.016;19.954;2023-02-28T06:17:59;100010.56;;;0.30
75811;BMP280;64449;50.016;19.954;2023-02-28T06:20:26;100012.98;;;0.31
75811;BMP280;64449;50.016;19.954;2023-02-28T06:22:55;100015.75;;;0.33
75811;BMP280;64449;50.016;19.954;2023-02-28T06:25:23;100018.41;;;0.35
75811;BMP280;64449;50.016;19.954;2023-02-28T06:27:49;100019.87;;;0.36
75811;BMP280;64449;50.016;19.954;2023-02-28T06:30:14;100022.73;;;0.38
75811;BMP280;64449;50.016;19.954;2023-02-28T06:32:39;100023.73;;;0.38
75811;BMP280;64449;50.016;19.954;2023-02-28T06:35:05;100026.89;;;0.40
75811;BMP280;64449;50.016;19.954;2023-02-28T06:37:32;100026.96;;;0.41
75811;BMP280;64449;50.016;19.954;2023-02-28T06:39:58;100030.92;;;0.42
75811;BMP280;64449;50.016;19.954;2023-02-28T06:42:24;100028.90;;;0.44
75811;BMP280;64449;50.016;19.954;2023-02-28T06:44:54;100034.75;;;0.45
75811;BMP280;64449;50.016;19.954;2023-02-28T06:47:20;100030.60;;;0.48
75811;BMP280;64449;50.016;19.954;2023-02-28T06:49:45;100029.47;;;0.50
75811;BMP280;64449;50.016;19.954;2023-02-28T06:52:11;100029.02;;;0.53
75811;BMP280;64449;50.016;19.954;2023-02-28T06:54:36;100026.18;;;0.57
75811;BMP280;64449;50.016;19.954;2023-02-28T06:57:02;100029.29;;;0.62
75811;BMP280;64449;50.016;19.954;2023-02-28T06:59:28;100033.70;;;0.67
75811;BMP280;64449;50.016;19.954;2023-02-28T07:01:53;100037.09;;;0.75
75811;BMP280;64449;50.016;19.954;2023-02-28T07:04:21;100042.70;;;0.79
75811;BMP280;64449;50.016;19.954;2023-02-28T07:06:46;100041.02;;;0.84
75811;BMP280;64449;50.016;19.954;2023-02-28T07:09:11;100049.30;;;0.85
75811;BMP280;64449;50.016;19.954;2023-02-28T07:11:37;100047.58;;;0.86
75811;BMP280;64449;50.016;19.954;2023-02-28T07:14:02;100049.88;;;0.88
75811;BMP280;64449;50.016;19.954;2023-02-28T07:16:28;100055.30;;;0.88
75811;BMP280;64449;50.016;19.954;2023-02-28T07:18:53;100055.78;;;0.90
75811;BMP280;64449;50.016;19.954;2023-02-28T07:21:19;100059.73;;;0.91
75811;BMP280;64449;50.016;19.954;2023-02-28T07:23:44;100060.56;;;0.93
75811;BMP280;64449;50.016;19.954;2023-02-28T07:26:15;100061.37;;;0.94
75811;BMP280;64449;50.016;19.954;2023-02-28T07:28:42;100064.05;;;0.96
75811;BMP280;64449;50.016;19.954;2023-02-28T07:31:08;100063.44;;;0.99
75811;BMP280;64449;50.016;19.954;2023-02-28T07:33:34;100059.80;;;1.04
75811;BMP280;64449;50.016;19.954;2023-02-28T07:36:05;100062.40;;;1.10
75811;BMP280;64449;50.016;19.954;2023-02-28T07:38:34;100067.13;;;1.26
75811;BMP280;64449;50.016;19.954;2023-02-28T07:41:02;100065.89;;;1.51
75811;BMP280;64449;50.016;19.954;2023-02-28T07:43:31;100067.55;;;1.68
75811;BMP280;64449;50.016;19.954;2023-02-28T07:46:08;100065.48;;;1.82
75811;BMP280;64449;50.016;19.954;2023-02-28T07:48:34;100065.63;;;1.95
75811;BMP280;64449;50.016;19.954;2023-02-28T07:51:00;100064.59;;;2.03
75811;BMP280;64449;50.016;19.954;2023-02-28T07:53:27;100066.24;;;2.09
75811;BMP280;64449;50.016;19.954;2023-02-28T07:56:00;100064.84;;;2.13
75811;BMP280;64449;50.016;19.954;2023-02-28T07:58:27;100059.33;;;2.19
75811;BMP280;64449;50.016;19.954;2023-02-28T08:00:53;100059.79;;;2.26
75811;BMP280;64449;50.016;19.954;2023-02-28T08:03:20;100060.70;;;2.31
75811;BMP280;64449;50.016;19.954;2023-02-28T08:05:47;100059.05;;;2.39
75811;BMP280;64449;50.016;19.954;2023-02-28T08:08:14;100056.20;;;2.45
75811;BMP280;64449;50.016;19.954;2023-02-28T08:10:39;100060.23;;;2.55
75811;BMP280;64449;50.016;19.954;2023-02-28T08:13:05;100060.16;;;2.64
75811;BMP280;64449;50.016;19.954;2023-02-28T08:15:30;100060.45;;;2.75
75811;BMP280;64449;50.016;19.954;2023-02-28T08:17:56;100060.53;;;2.81
75811;BMP280;64449;50.016;19.954;2023-02-28T08:20:23;100059.23;;;2.90
75811;BMP280;64449;50.016;19.954;2023-02-28T08:22:49;100061.66;;;2.99
75811;BMP280;64449;50.016;19.954;2023-02-28T08:25:15;100064.19;;;3.08
75811;BMP280;64449;50.016;19.954;2023-02-28T08:27:40;100066.42;;;3.20
75811;BMP280;64449;50.016;19.954;2023-02-28T08:30:06;100066.42;;;3.34
75811;BMP280;64449;50.016;19.954;2023-02-28T08:32:33;100066.80;;;3.53
75811;BMP280;64449;50.016;19.954;2023-02-28T08:34:58;100065.35;;;3.68
75811;BMP280;64449;50.016;19.954;2023-02-28T08:37:24;100065.92;;;3.82
75811;BMP280;64449;50.016;19.954;2023-02-28T08:39:50;100067.48;;;4.02
75811;BMP280;64449;50.016;19.954;2023-02-28T08:42:15;100065.88;;;4.26
75811;BMP280;64449;50.016;19.954;2023-02-28T08:44:41;100059.39;;;4.57
75811;BMP280;64449;50.016;19.954;2023-02-28T08:47:06;100061.15;;;4.98
75811;BMP280;64449;50.016;19.954;2023-02-28T08:49:31;100068.17;;;5.51
75811;BMP280;64449;50.016;19.954;2023-02-28T08:51:57;100064.09;;;6.12
75811;BMP280;64449;50.016;19.954;2023-02-28T08:54:23;100062.83;;;6.81
75811;BMP280;64449;50.016;19.954;2023-02-28T08:56:48;100064.34;;;7.45
75811;BMP280;64449;50.016;19.954;2023-02-28T08:59:15;100064.83;;;8.02
75811;BMP280;64449;50.016;19.954;2023-02-28T09:01:40;100068.69;;;8.53
75811;BMP280;64449;50.016;19.954;2023-02-28T09:04:09;100063.52;;;9.06
75811;BMP280;64449;50.016;19.954;2023-02-28T09:06:36;100062.48;;;9.53
75811;BMP280;64449;50.016;19.954;2023-02-28T09:09:02;100056.61;;;10.07
75811;BMP280;64449;50.016;19.954;2023-02-28T09:11:31;100053.73;;;10.69
75811;BMP280;64449;50.016;19.954;2023-02-28T09:13:57;100053.06;;;11.33
75811;BMP280;64449;50.016;19.954;2023-02-28T09:16:24;100056.38;;;11.91
75811;BMP280;64449;50.016;19.954;2023-02-28T09:18:49;100052.31;;;12.38
75811;BMP280;64449;50.016;19.954;2023-02-28T09:21:16;100047.35;;;12.74
75811;BMP280;64449;50.016;19.954;2023-02-28T09:23:44;100046.73;;;13.05
75811;BMP280;64449;50.016;19.954;2023-02-28T09:26:36;100045.61;;;13.30
75811;BMP280;64449;50.016;19.954;2023-02-28T09:29:02;100050.06;;;13.51
75811;BMP280;64449;50.016;19.954;2023-02-28T09:31:29;100048.84;;;13.64
75811;BMP280;64449;50.016;19.954;2023-02-28T09:33:56;100050.63;;;13.82
75811;BMP280;64449;50.016;19.954;2023-02-28T09:36:23;100044.67;;;14.03
75811;BMP280;64449;50.016;19.954;2023-02-28T09:38:49;100042.42;;;14.24
75811;BMP280;64449;50.016;19.954;2023-02-28T09:41:22;100039.94;;;14.45
75811;BMP280;64449;50.016;19.954;2023-02-28T09:44:00;100038.63;;;14.61
75811;BMP280;64449;50.016;19.954;2023-02-28T09:47:18;100036.55;;;15.02
75811;BMP280;64449;50.016;19.954;2023-02-28T09:49:46;100041.95;;;15.48
75811;BMP280;64449;50.016;19.954;2023-02-28T09:52:21;100046.51;;;15.90
75811;BMP280;64449;50.016;19.954;2023-02-28T09:57:38;100044.46;;;16.75
75811;BMP280;64449;50.016;19.954;2023-02-28T10:00:21;100042.55;;;16.99
75811;BMP280;64449;50.016;19.954;2023-02-28T10:05:30;100041.17;;;17.54
75811;BMP280;64449;50.016;19.954;2023-02-28T10:15:49;100040.88;;;19.23
75811;BMP280;64449;50.016;19.954;2023-02-28T10:18:21;100040.02;;;19.51
75811;BMP280;64449;50.016;19.954;2023-02-28T10:20:48;100035.30;;;19.77
75811;BMP280;64449;50.016;19.954;2023-02-28T10:23:25;100032.60;;;20.11
75811;BMP280;64449;50.016;19.954;2023-02-28T10:25:58;100030.92;;;20.35
75811;BMP280;64449;50.016;19.954;2023-02-28T10:28:25;100024.65;;;20.43
75811;BMP280;64449;50.016;19.954;2023-02-28T10:30:53;100022.41;;;20.42
75811;BMP280;64449;50.016;19.954;2023-02-28T10:33:30;100020.72;;;20.58
75811;BMP280;64449;50.016;19.954;2023-02-28T10:35:57;100012.68;;;20.79
75811;BMP280;64449;50.016;19.954;2023-02-28T10:38:26;100012.62;;;21.07
75811;BMP280;64449;50.016;19.954;2023-02-28T10:41:04;100013.07;;;21.23
75811;BMP280;64449;50.016;19.954;2023-02-28T10:43:30;100014.02;;;21.24
75811;BMP280;64449;50.016;19.954;2023-02-28T10:48:32;100006.41;;;21.41
75811;BMP280;64449;50.016;19.954;2023-02-28T10:50:58;100005.07;;;21.56
75811;BMP280;64449;50.016;19.954;2023-02-28T10:56:15;100000.66;;;21.78
75811;BMP280;64449;50.016;19.954;2023-02-28T10:59:01;99998.88;;;21.89
75811;BMP280;64449;50.016;19.954;2023-02-28T11:03:55;99997.06;;;22.26
75811;BMP280;64449;50.016;19.954;2023-02-28T11:06:26;99990.48;;;22.42
75811;BMP280;64449;50.016;19.954;2023-02-28T11:08:57;99986.59;;;22.45
75811;BMP280;64449;50.016;19.954;2023-02-28T11:11:25;99983.04;;;22.35
75811;BMP280;64449;50.016;19.954;2023-02-28T11:13:54;99985.56;;;22.24
75811;BMP280;64449;50.016;19.954;2023-02-28T11:16:20;99975.80;;;22.32
75811;BMP280;64449;50.016;19.954;2023-02-28T11:18:51;99973.09;;;22.52
75811;BMP280;64449;50.016;19.954;2023-02-28T11:21:22;99969.67;;;22.63
75811;BMP280;64449;50.016;19.954;2023-02-28T11:23:51;99969.59;;;22.72
75811;BMP280;64449;50.016;19.954;2023-02-28T11:26:44;99965.97;;;22.76
75811;BMP280;64449;50.016;19.954;2023-02-28T11:29:12;99966.89;;;22.86
75811;BMP280;64449;50.016;19.954;2023-02-28T11:31:41;99962.73;;;22.87
75811;BMP280;64449;50.016;19.954;2023-02-28T11:34:26;99958.36;;;22.81
75811;BMP280;64449;50.016;19.954;2023-02-28T11:36:54;99956.04;;;22.84
75811;BMP280;64449;50.016;19.954;2023-02-28T11:39:20;99946.72;;;22.95
75811;BMP280;64449;50.016;19.954;2023-02-28T11:44:33;99946.04;;;23.22
75811;BMP280;64449;50.016;19.954;2023-02-28T11:50:09;99945.86;;;23.18
75811;BMP280;64449;50.016;19.954;2023-02-28T11:52:42;99942.05;;;23.21
75811;BMP280;64449;50.016;19.954;2023-02-28T11:55:26;99938.09;;;23.07
75811;BMP280;64449;50.016;19.954;2023-02-28T12:03:44;99931.45;;;22.82
75811;BMP280;64449;50.016;19.954;2023-02-28T12:09:20;99929.08;;;22.91
75811;BMP280;64449;50.016;19.954;2023-02-28T12:15:04;99929.53;;;22.80
75811;BMP280;64449;50.016;19.954;2023-02-28T12:17:49;99929.48;;;22.79
75811;BMP280;64449;50.016;19.954;2023-02-28T12:20:38;99932.13;;;22.71
75811;BMP280;64449;50.016;19.954;2023-02-28T12:28:37;99933.67;;;22.36
75811;BMP280;64449;50.016;19.954;2023-02-28T12:31:10;99933.45;;;22.25
75811;BMP280;64449;50.016;19.954;2023-02-28T12:33:42;99928.27;;;21.95
75811;BMP280;64449;50.016;19.954;2023-02-28T12:36:15;99931.66;;;21.58
75811;BMP280;64449;50.016;19.954;2023-02-28T12:38:55;99937.34;;;21.30
75811;BMP280;64449;50.016;19.954;2023-02-28T12:44:44;99931.44;;;20.94
75811;BMP280;64449;50.016;19.954;2023-02-28T12:47:16;99935.30;;;20.66
75811;BMP280;64449;50.016;19.954;2023-02-28T12:49:46;99932.96;;;20.51
75811;BMP280;64449;50.016;19.954;2023-02-28T12:52:19;99933.55;;;20.37
75811;BMP280;64449;50.016;19.954;2023-02-28T12:57:41;99933.03;;;20.05
75811;BMP280;64449;50.016;19.954;2023-02-28T13:00:19;99931.06;;;19.68
75811;BMP280;64449;50.016;19.954;2023-02-28T13:08:24;99924.27;;;18.92
75811;BMP280;64449;50.016;19.954;2023-02-28T13:10:53;99923.89;;;18.71
75811;BMP280;64449;50.016;19.954;2023-02-28T13:13:27;99926.16;;;18.46
75811;BMP280;64449;50.016;19.954;2023-02-28T13:20:58;99917.48;;;18.00
75811;BMP280;64449;50.016;19.954;2023-02-28T13:34:32;99913.03;;;16.82
75811;BMP280;64449;50.016;19.954;2023-02-28T13:39:57;99903.52;;;16.48
75811;BMP280;64449;50.016;19.954;2023-02-28T13:47:34;99900.52;;;15.77
75811;BMP280;64449;50.016;19.954;2023-02-28T13:50:20;99906.33;;;15.57
75811;BMP280;64449;50.016;19.954;2023-02-28T13:58:08;99895.62;;;15.36
75811;BMP280;64449;50.016;19.954;2023-02-28T14:03:36;99885.23;;;14.99
75811;BMP280;64449;50.016;19.954;2023-02-28T14:06:28;99884.48;;;14.74
75811;BMP280;64449;50.016;19.954;2023-02-28T14:09:02;99879.55;;;14.60
75811;BMP280;64449;50.016;19.954;2023-02-28T14:11:40;99876.74;;;14.48
75811;BMP280;64449;50.016;19.954;2023-02-28T14:14:09;99875.02;;;14.29
75811;BMP280;64449;50.016;19.954;2023-02-28T14:16:38;99871.01;;;14.12
75811;BMP280;64449;50.016;19.954;2023-02-28T14:19:24;99869.05;;;14.01
75811;BMP280;64449;50.016;19.954;2023-02-28T14:36:14;99872.39;;;12.96
75811;BMP280;64449;50.016;19.954;2023-02-28T14:38:52;99868.53;;;12.73
75811;BMP280;64449;50.016;19.954;2023-02-28T14:41:29;99871.16;;;12.57
75811;BMP280;64449;50.016;19.954;2023-02-28T14:43:58;99873.15;;;12.43
75811;BMP280;64449;50.016;19.954;2023-02-28T14:46:34;99866.77;;;12.30
75811;BMP280;64449;50.016;19.954;2023-02-28T14:49:01;99871.95;;;12.19
75811;BMP280;64449;50.016;19.954;2023-02-28T14:54:22;99871.00;;;12.04
75811;BMP280;64449;50.016;19.954;2023-02-28T14:56:49;99869.12;;;11.96
75811;BMP280;64449;50.016;19.954;2023-02-28T15:10:27;99871.89;;;11.35
75811;BMP280;64449;50.016;19.954;2023-02-28T15:13:01;99875.65;;;11.23
75811;BMP280;64449;50.016;19.954;2023-02-28T15:15:40;99876.85;;;11.12
75811;BMP280;64449;50.016;19.954;2023-02-28T15:18:13;99874.10;;;11.01
75811;BMP280;64449;50.016;19.954;2023-02-28T15:23:28;99867.91;;;10.77
75811;BMP280;64449;50.016;19.954;2023-02-28T15:28:43;99869.72;;;10.47
75811;BMP280;64449;50.016;19.954;2023-02-28T15:59:28;99875.75;;;10.47
75811;BMP280;64449;50.016;19.954;2023-02-28T16:10:17;99873.25;;;9.23
75811;BMP280;64449;50.016;19.954;2023-02-28T16:12:43;99875.82;;;9.03
75811;BMP280;64449;50.016;19.954;2023-02-28T16:15:20;99881.37;;;8.83
75811;BMP280;64449;50.016;19.954;2023-02-28T16:17:46;99879.85;;;8.63
75811;BMP280;64449;50.016;19.954;2023-02-28T16:20:32;99882.02;;;8.43
75811;BMP280;64449;50.016;19.954;2023-02-28T16:22:58;99881.80;;;8.23
75811;BMP280;64449;50.016;19.954;2023-02-28T16:25:41;99881.05;;;8.06
75811;BMP280;64449;50.016;19.954;2023-02-28T16:28:24;99883.05;;;7.88
75811;BMP280;64449;50.016;19.954;2023-02-28T16:30:52;99883.11;;;7.70
75811;BMP280;64449;50.016;19.954;2023-02-28T16:33:17;99882.70;;;7.55
75811;BMP280;64449;50.016;19.954;2023-02-28T16:35:42;99883.92;;;7.42
75811;BMP280;64449;50.016;19.954;2023-02-28T16:38:08;99886.97;;;7.28
75811;BMP280;64449;50.016;19.954;2023-02-28T16:40:35;99893.58;;;7.15
75811;BMP280;64449;50.016;19.954;2023-02-28T16:43:05;99896.04;;;7.02
75811;BMP280;64449;50.016;19.954;2023-02-28T16:45:32;99894.85;;;6.90
75811;BMP280;64449;50.016;19.954;2023-02-28T16:47:58;99897.40;;;6.78
75811;BMP280;64449;50.016;19.954;2023-02-28T16:50:29;99895.81;;;6.67
75811;BMP280;64449;50.016;19.954;2023-02-28T16:52:56;99902.08;;;6.59
75811;BMP280;64449;50.016;19.954;2023-02-28T16:55:23;99903.25;;;6.49
75811;BMP280;64449;50.016;19.954;2023-02-28T16:57:57;99902.73;;;6.39
75811;BMP280;64449;50.016;19.954;2023-02-28T17:00:25;99902.95;;;6.29
75811;BMP280;64449;50.016;19.954;2023-02-28T17:02:53;99905.16;;;6.20
75811;BMP280;64449;50.016;19.954;2023-02-28T17:05:18;99911.14;;;6.11
75811;BMP280;64449;50.016;19.954;2023-02-28T17:07:45;99906.11;;;6.02
75811;BMP280;64449;50.016;19.954;2023-02-28T17:12:45;99903.89;;;5.84
75811;BMP280;64449;50.016;19.954;2023-02-28T17:15:13;99905.77;;;5.78
75811;BMP280;64449;50.016;19.954;2023-02-28T17:17:40;99905.20;;;5.70
75811;BMP280;64449;50.016;19.954;2023-02-28T17:20:10;99904.42;;;5.63
75811;BMP280;64449;50.016;19.954;2023-02-28T17:22:36;99908.22;;;5.58
75811;BMP280;64449;50.016;19.954;2023-02-28T17:25:02;99910.27;;;5.55